createdAt,value
2019-05-29T00:02:05.965Z,93.63
2019-05-29T00:04:34.645Z,93.73
2019-05-29T00:07:03.259Z,92.98
2019-05-29T00:09:31.652Z,93.30
2019-05-29T00:12:00.033Z,93.38
2019-05-29T00:14:28.433Z,92.54
2019-05-29T00:16:56.797Z,93.15
2019-05-29T00:19:25.461Z,93.29
2019-05-29T00:21:54.056Z,92.19
2019-05-29T00:24:23.254Z,92.35
2019-05-29T00:26:51.655Z,92.36
2019-05-29T00:29:22.717Z,92.26
2019-05-29T00:31:51.178Z,93.08
2019-05-29T00:34:19.576Z,93.40
2019-05-29T00:36:47.952Z,92.90
2019-05-29T00:39:16.872Z,92.39
2019-05-29T00:41:45.638Z,93.02
2019-05-29T00:44:15.305Z,93.33
2019-05-29T00:46:43.781Z,93.53
2019-05-29T00:49:12.178Z,93.18
2019-05-29T00:51:40.569Z,92.87
2019-05-29T00:54:10.235Z,91.03
2019-05-29T00:56:38.879Z,91.07
2019-05-29T00:59:07.548Z,91.33
2019-05-29T01:01:35.926Z,92.51
2019-05-29T01:04:04.396Z,93.20
2019-05-29T01:06:32.784Z,91.69
2019-05-29T01:09:01.169Z,91.20
2019-05-29T01:11:29.791Z,90.25
2019-05-29T01:13:58.439Z,89.77
2019-05-29T01:16:26.816Z,90.27
2019-05-29T01:18:57.104Z,90.26
2019-05-29T01:21:25.862Z,89.84
2019-05-29T01:23:54.240Z,89.56
2019-05-29T01:26:22.903Z,90.03
2019-05-29T01:28:51.299Z,89.72
2019-05-29T01:31:19.920Z,88.68
2019-05-29T01:33:48.299Z,89.86
2019-05-29T01:36:17.940Z,90.21
2019-05-29T01:38:46.353Z,90.23
2019-05-29T01:41:15.102Z,90.49
2019-05-29T01:43:43.521Z,90.72
2019-05-29T01:46:11.907Z,89.89
2019-05-29T01:48:40.290Z,89.56
2019-05-29T01:51:08.680Z,89.09
2019-05-29T01:53:37.307Z,89.86
2019-05-29T01:56:05.955Z,91.06
2019-05-29T01:58:34.599Z,90.52
2019-05-29T02:01:02.995Z,91.12
2019-05-29T02:03:31.620Z,90.42
2019-05-29T02:06:00.008Z,90.41
2019-05-29T02:08:28.399Z,90.43
2019-05-29T02:10:56.779Z,91.03
2019-05-29T02:13:25.162Z,91.24
2019-05-29T02:15:53.563Z,90.90
2019-05-29T02:18:22.963Z,91.59
2019-05-29T02:20:51.651Z,90.77
2019-05-29T02:23:20.048Z,90.24
2019-05-29T02:25:48.424Z,91.31
2019-05-29T02:28:16.802Z,91.66
2019-05-29T02:30:45.195Z,90.74
2019-05-29T02:33:13.650Z,91.77
2019-05-29T02:35:42.323Z,90.97
2019-05-29T02:38:10.704Z,91.31
2019-05-29T02:40:39.102Z,91.83
2019-05-29T02:43:07.481Z,91.71
2019-05-29T02:45:53.182Z,91.76
2019-05-29T02:48:06.310Z,90.84
2019-05-29T02:50:34.713Z,91.36
2019-05-29T02:53:03.097Z,91.56
2019-05-29T02:55:31.498Z,92.08
2019-05-29T02:58:00.117Z,91.43
2019-05-29T03:00:43.757Z,91.34
2019-05-29T03:03:12.146Z,91.94
2019-05-29T03:05:40.537Z,92.00
2019-05-29T03:08:09.176Z,90.58
2019-05-29T03:10:37.569Z,91.43
2019-05-29T03:13:06.034Z,91.70
2019-05-29T03:15:34.661Z,91.89
2019-05-29T03:18:03.062Z,91.90
2019-05-29T03:20:32.394Z,91.71
2019-05-29T03:23:00.822Z,92.00
2019-05-29T03:25:30.603Z,92.24
2019-05-29T03:27:59.031Z,91.65
2019-05-29T03:30:30.676Z,92.11
2019-05-29T03:32:57.789Z,91.74
2019-05-29T03:35:28.198Z,92.00
2019-05-29T03:37:58.745Z,91.91
2019-05-29T03:40:26.708Z,91.57
2019-05-29T03:42:56.739Z,92.22
2019-05-29T03:45:26.697Z,92.17
2019-05-29T03:47:55.236Z,92.55
2019-05-29T03:50:23.872Z,92.31
2019-05-29T03:52:52.300Z,91.95
2019-05-29T03:55:20.669Z,91.90
2019-05-29T03:57:49.067Z,91.21
2019-05-29T04:00:17.937Z,91.84
2019-05-29T04:02:46.332Z,91.64
2019-05-29T04:05:16.053Z,91.97
2019-05-29T04:07:44.457Z,92.49
2019-05-29T04:10:13.066Z,91.49
2019-05-29T04:12:41.466Z,91.97
2019-05-29T04:15:10.170Z,91.98
2019-05-29T04:17:39.823Z,92.19
2019-05-29T04:20:09.291Z,92.55
2019-05-29T04:22:45.138Z,89.93
2019-05-29T04:25:14.359Z,91.02
2019-05-29T04:27:43.500Z,91.20
2019-05-29T04:30:13.695Z,91.54
2019-05-29T04:32:42.093Z,91.73
2019-05-29T04:35:10.887Z,91.72
2019-05-29T04:37:40.070Z,90.86
2019-05-29T04:40:09.660Z,90.91
2019-05-29T04:42:39.928Z,90.91
2019-05-29T04:45:08.604Z,90.62
2019-05-29T04:47:37.495Z,90.39
2019-05-29T04:50:07.265Z,89.33
2019-05-29T04:52:37.655Z,89.28
2019-05-29T04:55:06.144Z,89.97
2019-05-29T04:57:35.015Z,89.99
2019-05-29T05:00:04.182Z,89.72
2019-05-29T05:02:33.051Z,89.29
2019-05-29T05:05:01.448Z,89.62
2019-05-29T05:07:31.091Z,89.62
2019-05-29T05:09:59.469Z,89.38
2019-05-29T05:12:29.490Z,89.74
2019-05-29T05:14:58.382Z,89.34
2019-05-29T05:17:27.122Z,88.97
2019-05-29T05:19:55.517Z,88.83
2019-05-29T05:22:23.899Z,88.60
2019-05-29T05:24:52.302Z,89.09
2019-05-29T05:27:20.683Z,88.68
2019-05-29T05:29:49.335Z,89.25
2019-05-29T05:32:17.969Z,88.72
2019-05-29T05:34:46.644Z,88.94
2019-05-29T05:37:15.284Z,88.57
2019-05-29T05:39:43.688Z,88.16
2019-05-29T05:42:12.081Z,88.11
2019-05-29T05:44:41.156Z,88.31
2019-05-29T05:47:09.541Z,87.28
2019-05-29T05:49:39.419Z,88.26
2019-05-29T05:52:08.111Z,87.16
2019-05-29T05:54:37.526Z,87.27
2019-05-29T05:57:06.232Z,87.71
2019-05-29T05:59:35.743Z,87.20
2019-05-29T06:02:04.215Z,86.60
2019-05-29T06:04:33.803Z,87.51
2019-05-29T06:07:02.464Z,87.02
2019-05-29T06:09:32.679Z,86.53
2019-05-29T06:12:01.335Z,86.07
2019-05-29T06:14:29.745Z,85.74
2019-05-29T06:16:58.142Z,85.96
2019-05-29T06:19:26.566Z,85.86
2019-05-29T06:21:54.956Z,85.95
2019-05-29T06:24:23.363Z,85.02
2019-05-29T06:26:51.998Z,85.03
2019-05-29T06:29:20.650Z,83.98
2019-05-29T06:31:49.043Z,85.12
2019-05-29T06:34:17.458Z,85.06
2019-05-29T06:36:48.107Z,85.93
2019-05-29T06:39:16.239Z,85.98
2019-05-29T06:41:44.733Z,85.77
2019-05-29T06:44:13.368Z,85.85
2019-05-29T06:46:42.576Z,85.45
2019-05-29T06:49:11.286Z,85.76
2019-05-29T06:51:39.681Z,85.54
2019-05-29T06:54:08.136Z,85.88
2019-05-29T06:56:37.621Z,86.74
2019-05-29T06:59:06.092Z,86.04
2019-05-29T07:01:35.234Z,85.96
2019-05-29T07:04:11.862Z,86.09
2019-05-29T07:06:34.295Z,85.82
2019-05-29T07:09:02.763Z,85.94
2019-05-29T07:11:31.168Z,85.99
2019-05-29T07:13:59.556Z,85.38
2019-05-29T07:16:43.258Z,85.50
2019-05-29T07:21:28.472Z,85.85
2019-05-29T07:23:56.860Z,85.88
2019-05-29T07:26:25.510Z,85.22
2019-05-29T07:29:06.516Z,84.79
2019-05-29T07:31:24.037Z,84.10
2019-05-29T07:33:52.682Z,84.16
2019-05-29T07:36:21.089Z,81.67
2019-05-29T07:38:57.774Z,81.43
2019-05-29T07:41:19.612Z,82.09
2019-05-29T07:43:48.170Z,82.52
2019-05-29T07:46:16.587Z,81.43
2019-05-29T07:48:46.388Z,81.73
2019-05-29T07:51:15.817Z,80.35
2019-05-29T07:53:44.495Z,76.98
2019-05-29T07:56:22.026Z,78.19
2019-05-29T07:58:49.131Z,74.58
2019-05-29T08:01:14.054Z,77.21
2019-05-29T08:03:43.491Z,72.27
2019-05-29T08:06:12.012Z,73.10
2019-05-29T08:08:41.205Z,74.93
2019-05-29T08:11:09.825Z,75.58
2019-05-29T08:13:39.476Z,75.60
2019-05-29T08:16:08.116Z,76.53
2019-05-29T08:18:36.549Z,76.40
2019-05-29T08:21:05.150Z,74.86
2019-05-29T08:23:33.540Z,74.54
2019-05-29T08:26:01.946Z,75.74
2019-05-29T08:28:30.346Z,73.50
2019-05-29T08:30:58.756Z,75.65
2019-05-29T08:33:27.138Z,74.36
2019-05-29T08:36:00.102Z,75.40
2019-05-29T08:38:26.140Z,75.25
2019-05-29T08:40:54.538Z,76.06
2019-05-29T08:43:22.942Z,77.28
2019-05-29T08:45:52.633Z,75.79
2019-05-29T08:48:21.158Z,76.45
2019-05-29T08:50:49.985Z,75.05
2019-05-29T08:53:18.630Z,74.55
2019-05-29T08:55:48.402Z,75.02
2019-05-29T08:58:17.425Z,75.11
2019-05-29T09:00:49.893Z,73.76
2019-05-29T09:03:15.952Z,72.27
2019-05-29T09:05:44.584Z,72.91
2019-05-29T09:08:13.018Z,72.00
2019-05-29T09:10:41.397Z,71.18
2019-05-29T09:13:09.801Z,70.94
2019-05-29T09:15:38.429Z,69.71
2019-05-29T09:18:06.825Z,70.86
2019-05-29T09:21:00.082Z,69.22
2019-05-29T09:23:05.336Z,70.16
2019-05-29T09:25:33.969Z,69.00
2019-05-29T09:28:04.121Z,69.51
2019-05-29T09:30:32.744Z,70.79
2019-05-29T09:33:01.146Z,69.44
2019-05-29T09:35:29.788Z,66.18
2019-05-29T09:37:58.433Z,65.23
2019-05-29T09:40:26.817Z,65.70
2019-05-29T09:42:55.215Z,66.30
2019-05-29T09:45:23.853Z,66.22
2019-05-29T09:47:52.248Z,66.15
2019-05-29T09:50:23.229Z,67.53
2019-05-29T09:52:51.241Z,65.12
2019-05-29T09:55:19.688Z,68.27
2019-05-29T09:57:48.096Z,67.73
2019-05-29T10:00:17.212Z,65.43
2019-05-29T10:02:45.897Z,64.37
2019-05-29T10:05:14.423Z,64.29
2019-05-29T10:07:42.818Z,64.61
2019-05-29T10:10:13.148Z,63.32
2019-05-29T10:12:41.620Z,65.26
2019-05-29T10:15:12.190Z,65.89
2019-05-29T10:17:40.594Z,66.93
2019-05-29T10:20:10.707Z,66.09
2019-05-29T10:22:39.342Z,65.58
2019-05-29T10:25:08.475Z,66.29
2019-05-29T10:27:36.884Z,68.97
2019-05-29T10:30:06.603Z,68.34
2019-05-29T10:32:35.070Z,65.85
2019-05-29T10:35:03.925Z,64.98
2019-05-29T10:37:32.327Z,66.38
2019-05-29T10:40:00.974Z,63.47
2019-05-29T10:42:29.632Z,63.81
2019-05-29T10:44:58.086Z,64.54
2019-05-29T10:47:26.466Z,63.34
2019-05-29T10:49:54.858Z,61.04
2019-05-29T10:52:23.242Z,62.73
2019-05-29T10:54:52.433Z,65.56
2019-05-29T10:57:20.901Z,59.26
2019-05-29T10:59:49.286Z,57.45
2019-05-29T11:02:17.929Z,58.95
2019-05-29T11:04:50.394Z,60.97
2019-05-29T11:07:16.518Z,62.87
2019-05-29T11:09:46.680Z,62.38
2019-05-29T11:12:15.434Z,57.99
2019-05-29T11:14:43.851Z,61.62
2019-05-29T11:17:12.221Z,60.63
2019-05-29T11:19:40.673Z,57.64
2019-05-29T11:22:25.108Z,56.47
2019-05-29T11:24:39.263Z,57.82
2019-05-29T11:27:07.656Z,59.05
2019-05-29T11:29:36.066Z,58.62
2019-05-29T11:32:04.524Z,59.80
2019-05-29T11:34:32.918Z,59.98
2019-05-29T11:37:02.421Z,64.09
2019-05-29T11:39:31.135Z,62.68
2019-05-29T11:41:59.527Z,60.81
2019-05-29T11:44:27.923Z,60.76
2019-05-29T11:46:56.566Z,58.96
2019-05-29T11:49:25.209Z,59.84
2019-05-29T11:51:55.337Z,60.79
2019-05-29T11:54:23.715Z,63.19
2019-05-29T11:56:53.712Z,60.69
2019-05-29T11:59:22.326Z,58.55
2019-05-29T12:01:52.506Z,60.95
2019-05-29T12:04:26.338Z,58.28
2019-05-29T12:06:51.275Z,60.87
2019-05-29T12:09:32.253Z,60.58
2019-05-29T12:11:49.828Z,58.92
2019-05-29T12:14:18.652Z,55.99
2019-05-29T12:16:47.040Z,56.17
2019-05-29T12:19:15.674Z,58.84
2019-05-29T12:21:44.355Z,62.17
2019-05-29T12:24:13.000Z,62.52
2019-05-29T12:26:41.709Z,64.54
2019-05-29T12:29:11.831Z,64.42
2019-05-29T12:31:40.754Z,63.48
2019-05-29T12:34:18.742Z,62.93
2019-05-29T12:36:39.504Z,63.62
2019-05-29T12:39:08.786Z,63.57
2019-05-29T12:41:37.208Z,65.19
2019-05-29T12:44:05.913Z,65.42
2019-05-29T12:46:34.297Z,64.58
2019-05-29T12:49:03.767Z,65.48
2019-05-29T12:51:32.184Z,64.14
2019-05-29T12:54:02.163Z,64.65
2019-05-29T12:56:30.699Z,65.92
2019-05-29T12:59:00.415Z,66.36
2019-05-29T13:01:29.213Z,65.26
2019-05-29T13:04:00.457Z,66.22
2019-05-29T13:06:28.104Z,66.45
2019-05-29T13:08:56.736Z,68.22
2019-05-29T13:11:25.123Z,68.88
2019-05-29T13:13:54.330Z,70.48
2019-05-29T13:16:22.809Z,72.69
2019-05-29T13:18:51.436Z,73.00
2019-05-29T13:21:20.078Z,73.89
2019-05-29T13:23:48.738Z,76.03
2019-05-29T13:26:17.122Z,77.24
2019-05-29T13:28:45.523Z,79.92
2019-05-29T13:31:14.157Z,80.06
2019-05-29T13:33:42.560Z,81.56
2019-05-29T13:36:10.949Z,83.37
2019-05-29T13:38:39.886Z,82.25
2019-05-29T13:41:08.315Z,83.08
2019-05-29T13:43:36.962Z,84.22
2019-05-29T13:46:05.432Z,84.16
2019-05-29T13:48:33.824Z,84.53
2019-05-29T13:51:03.668Z,85.27
2019-05-29T13:53:32.095Z,86.15
2019-05-29T13:56:01.773Z,88.54
2019-05-29T13:58:30.513Z,88.36
2019-05-29T14:01:00.790Z,89.51
2019-05-29T14:03:29.280Z,89.67
2019-05-29T14:05:58.680Z,89.61
2019-05-29T14:08:27.076Z,89.57
2019-05-29T14:10:55.712Z,89.81
2019-05-29T14:13:24.543Z,89.63
2019-05-29T14:15:53.203Z,90.21
2019-05-29T14:18:21.604Z,89.62
2019-05-29T14:20:50.021Z,90.31
2019-05-29T14:23:18.412Z,91.46
2019-05-29T14:25:46.825Z,91.07
2019-05-29T14:28:15.542Z,89.97
2019-05-29T14:30:44.179Z,90.44
2019-05-29T14:33:15.126Z,89.30
2019-05-29T14:35:43.235Z,89.16
2019-05-29T14:38:14.946Z,88.18
2019-05-29T14:40:42.016Z,89.14
2019-05-29T14:43:13.673Z,88.73
2019-05-29T14:45:40.562Z,89.44
2019-05-29T14:48:10.182Z,89.61
2019-05-29T14:50:38.578Z,90.23
2019-05-29T14:53:07.407Z,88.71
2019-05-29T14:55:36.371Z,90.22
2019-05-29T14:58:05.729Z,89.04
2019-05-29T15:00:34.174Z,89.73
2019-05-29T15:03:03.323Z,90.93
2019-05-29T15:05:31.798Z,91.63
2019-05-29T15:08:00.201Z,92.17
2019-05-29T15:10:28.842Z,93.41
2019-05-29T15:12:58.318Z,93.70
2019-05-29T15:15:26.977Z,93.34
2019-05-29T15:17:55.628Z,93.63
2019-05-29T15:20:24.028Z,93.18
2019-05-29T15:22:52.683Z,93.06
2019-05-29T15:25:24.386Z,93.27
2019-05-29T15:27:52.205Z,93.01
2019-05-29T15:30:23.319Z,92.49
2019-05-29T15:32:50.822Z,93.07
2019-05-29T15:35:20.233Z,92.88
2019-05-29T15:37:48.682Z,92.06
2019-05-29T15:40:17.327Z,92.29
2019-05-29T15:42:45.768Z,92.85
2019-05-29T15:45:15.955Z,93.02
2019-05-29T15:47:44.396Z,92.29
2019-05-29T15:50:14.720Z,92.83
2019-05-29T15:52:43.731Z,92.99
2019-05-29T15:55:27.428Z,92.56
2019-05-29T15:57:42.678Z,92.06
2019-05-29T16:00:13.576Z,92.02
2019-05-29T16:02:42.194Z,92.17
2019-05-29T16:05:13.210Z,92.03
2019-05-29T16:07:41.980Z,91.80
2019-05-29T16:10:14.817Z,91.67
2019-05-29T16:12:42.794Z,91.03
2019-05-29T16:15:13.106Z,91.35
2019-05-29T16:17:41.599Z,90.58
2019-05-29T16:20:12.160Z,90.75
2019-05-29T16:22:40.722Z,90.09
2019-05-29T16:25:10.833Z,90.49
2019-05-29T16:27:39.323Z,90.85
2019-05-29T16:30:13.630Z,90.61
2019-05-29T16:32:42.427Z,91.26
2019-05-29T16:35:13.190Z,91.89
2019-05-29T16:37:41.754Z,91.73
2019-05-29T16:40:18.155Z,92.09
2019-05-29T16:42:46.690Z,91.66
2019-05-29T16:45:16.331Z,92.04
2019-05-29T16:47:44.863Z,92.62
2019-05-29T16:50:15.020Z,93.15
2019-05-29T16:52:43.505Z,92.99
2019-05-29T16:55:12.996Z,93.13
2019-05-29T16:57:41.945Z,92.66
2019-05-29T17:00:13.547Z,93.65
2019-05-29T17:02:42.195Z,93.47
2019-05-29T17:05:11.002Z,93.48
2019-05-29T17:07:39.370Z,92.70
2019-05-29T17:10:08.617Z,93.15
2019-05-29T17:12:36.981Z,93.04
2019-05-29T17:15:10.605Z,94.10
2019-05-29T17:17:39.316Z,94.03
2019-05-29T17:20:08.850Z,93.90
2019-05-29T17:22:37.500Z,94.27
2019-05-29T17:25:06.900Z,94.32
2019-05-29T17:27:35.362Z,94.00
2019-05-29T17:30:05.290Z,94.18
2019-05-29T17:32:33.918Z,94.53
2019-05-29T17:35:02.486Z,94.61
2019-05-29T17:37:31.035Z,94.71
2019-05-29T17:39:59.748Z,94.93
2019-05-29T17:42:28.131Z,95.10
2019-05-29T17:44:56.525Z,94.73
2019-05-29T17:47:25.767Z,94.23
2019-05-29T17:49:54.171Z,94.08
2019-05-29T17:52:23.836Z,93.61
2019-05-29T17:54:52.571Z,94.01
2019-05-29T17:57:21.954Z,93.54
2019-05-29T17:59:50.670Z,92.92
2019-05-29T18:02:20.255Z,93.35
2019-05-29T18:04:48.681Z,93.74
2019-05-29T18:07:18.290Z,94.28
2019-05-29T18:09:46.972Z,93.56
2019-05-29T18:12:15.399Z,93.85
2019-05-29T18:14:43.771Z,94.45
2019-05-29T18:17:12.426Z,94.52
2019-05-29T18:19:40.792Z,94.35
2019-05-29T18:22:09.201Z,94.49
2019-05-29T18:24:37.836Z,94.64
2019-05-29T18:27:06.305Z,94.86
2019-05-29T18:29:34.686Z,94.99
2019-05-29T18:32:03.346Z,94.83
2019-05-29T18:34:31.954Z,94.73
2019-05-29T18:37:00.672Z,94.84
2019-05-29T18:39:29.314Z,94.89
2019-05-29T18:41:57.952Z,94.69
2019-05-29T18:44:26.963Z,94.76
2019-05-29T18:46:55.578Z,94.72
2019-05-29T18:49:24.371Z,94.90
2019-05-29T18:51:52.919Z,94.56
2019-05-29T18:54:21.663Z,95.00
2019-05-29T18:57:13.748Z,94.83
2019-05-29T18:59:21.483Z,94.57
2019-05-29T19:01:50.123Z,94.89
2019-05-29T19:04:18.506Z,95.41
2019-05-29T19:06:46.897Z,95.66
2019-05-29T19:09:15.524Z,95.72
2019-05-29T19:11:43.918Z,95.71
2019-05-29T19:14:12.296Z,95.42
2019-05-29T19:16:40.685Z,95.29
2019-05-29T19:19:09.070Z,95.40
2019-05-29T19:21:37.465Z,95.52
2019-05-29T19:24:05.999Z,95.93
2019-05-29T19:26:36.731Z,95.73
2019-05-29T19:29:04.871Z,96.01
2019-05-29T19:31:33.435Z,96.30
2019-05-29T19:34:02.045Z,96.39
2019-05-29T19:36:31.764Z,96.41
2019-05-29T19:39:00.203Z,96.46
2019-05-29T19:41:28.604Z,96.57
2019-05-29T19:43:56.991Z,96.71
2019-05-29T19:46:26.368Z,96.72
2019-05-29T19:48:54.758Z,96.50
2019-05-29T19:51:23.153Z,96.30
2019-05-29T19:53:51.801Z,96.37
2019-05-29T19:56:20.201Z,96.49
2019-05-29T19:58:48.582Z,96.50
2019-05-29T20:01:30.105Z,96.59
2019-05-29T20:03:47.082Z,96.69
2019-05-29T20:06:15.737Z,96.95
2019-05-29T20:08:44.400Z,97.04
2019-05-29T20:11:12.766Z,97.00
2019-05-29T20:13:41.417Z,97.28
2019-05-29T20:16:10.094Z,97.49
2019-05-29T20:18:38.604Z,97.45
2019-05-29T20:21:07.212Z,97.46
2019-05-29T20:23:36.735Z,97.52
2019-05-29T20:26:05.447Z,97.47
2019-05-29T20:28:34.286Z,97.20
2019-05-29T20:31:02.667Z,97.26
2019-05-29T20:33:32.393Z,97.23
2019-05-29T20:36:01.126Z,97.28
2019-05-29T20:38:29.534Z,97.36
2019-05-29T20:40:58.177Z,97.48
2019-05-29T20:43:26.592Z,97.52
2019-05-29T20:45:55.227Z,97.55
2019-05-29T20:48:23.627Z,97.53
2019-05-29T20:50:52.015Z,97.50
2019-05-29T20:53:20.677Z,97.40
2019-05-29T20:55:49.067Z,97.30
2019-05-29T20:58:24.633Z,97.40
2019-05-29T21:00:47.835Z,97.40
2019-05-29T21:03:16.233Z,97.37
2019-05-29T21:05:44.626Z,97.31
2019-05-29T21:08:14.205Z,97.35
2019-05-29T21:10:43.631Z,97.28
2019-05-29T21:13:12.015Z,97.22
2019-05-29T21:15:41.478Z,97.19
2019-05-29T21:18:10.447Z,97.13
2019-05-29T21:20:40.367Z,97.10
2019-05-29T21:23:09.109Z,97.17
2019-05-29T21:25:38.712Z,97.11
2019-05-29T21:28:07.400Z,97.23
2019-05-29T21:30:37.348Z,97.35
2019-05-29T21:33:06.056Z,97.42
2019-05-29T21:35:34.443Z,97.42
2019-05-29T21:38:03.098Z,97.32
2019-05-29T21:40:31.512Z,97.40
2019-05-29T21:42:59.895Z,97.50
2019-05-29T21:45:28.525Z,97.65
2019-05-29T21:47:56.935Z,97.87
2019-05-29T21:50:25.565Z,98.00
2019-05-29T21:52:54.043Z,97.94
2019-05-29T21:55:22.431Z,97.77
2019-05-29T21:57:50.832Z,97.50
2019-05-29T22:00:33.798Z,97.38
2019-05-29T22:03:02.537Z,97.40
2019-05-29T22:05:31.178Z,97.51
2019-05-29T22:07:59.996Z,97.53
2019-05-29T22:10:28.383Z,97.68
2019-05-29T22:12:56.940Z,97.47
2019-05-29T22:15:25.399Z,97.24
2019-05-29T22:17:54.942Z,97.33
2019-05-29T22:20:23.648Z,97.46
2019-05-29T22:22:53.070Z,97.30
2019-05-29T22:25:21.742Z,97.31
2019-05-29T22:27:51.211Z,97.40
2019-05-29T22:30:20.100Z,97.38
2019-05-29T22:32:48.741Z,97.41
2019-05-29T22:35:17.388Z,97.26
2019-05-29T22:37:45.771Z,97.27
2019-05-29T22:40:14.658Z,97.38
2019-05-29T22:42:43.051Z,97.53
2019-05-29T22:45:12.282Z,97.49
2019-05-29T22:47:40.913Z,97.54
2019-05-29T22:50:09.854Z,97.76
2019-05-29T22:52:38.254Z,97.81
2019-05-29T22:55:07.093Z,97.87
2019-05-29T22:57:35.734Z,97.89
2019-05-29T23:00:09.214Z,97.86
2019-05-29T23:02:37.599Z,97.79
2019-05-29T23:05:08.475Z,97.76
2019-05-29T23:07:36.926Z,97.94
2019-05-29T23:10:08.819Z,97.97
2019-05-29T23:12:37.459Z,98.04
2019-05-29T23:15:07.885Z,98.02
2019-05-29T23:17:36.521Z,97.90
2019-05-29T23:20:08.379Z,97.82
2019-05-29T23:22:36.780Z,98.04
2019-05-29T23:25:06.919Z,98.02
2019-05-29T23:27:35.973Z,98.10
2019-05-29T23:30:07.526Z,98.11
2019-05-29T23:32:35.911Z,98.04
2019-05-29T23:35:05.551Z,97.97
2019-05-29T23:37:34.182Z,98.08
2019-05-29T23:40:03.521Z,98.20
2019-05-29T23:42:31.924Z,98.25
2019-05-29T23:45:01.549Z,98.27
2019-05-29T23:47:30.242Z,98.31
2019-05-29T23:49:59.692Z,98.46
2019-05-29T23:52:28.365Z,98.58
2019-05-29T23:54:57.942Z,98.52
2019-05-29T23:57:26.584Z,98.71
